createdAt,value
2023-03-13T00:00:56.778Z,87.28
2023-03-13T00:03:23.164Z,87.29
2023-03-13T00:05:49.517Z,87.33
2023-03-13T00:08:15.828Z,87.24
2023-03-13T00:10:43.168Z,87.24
2023-03-13T00:13:09.594Z,86.88
2023-03-13T00:15:35.928Z,86.05
2023-03-13T00:18:02.294Z,85.83
2023-03-13T00:20:29.556Z,85.59
2023-03-13T00:22:55.894Z,85.40
2023-03-13T00:25:22.302Z,85.57
2023-03-13T00:27:48.609Z,85.68
2023-03-13T00:30:15.142Z,85.90
2023-03-13T00:32:44.541Z,85.54
2023-03-13T00:35:10.887Z,85.53
2023-03-13T00:37:37.244Z,86.10
2023-03-13T00:40:05.081Z,86.25
2023-03-13T00:42:31.736Z,86.70
2023-03-13T00:44:58.058Z,86.63
2023-03-13T00:47:24.405Z,86.82
2023-03-13T00:49:50.714Z,86.74
2023-03-13T00:52:17.035Z,86.89
2023-03-13T00:54:43.333Z,87.03
2023-03-13T00:57:09.663Z,86.83
2023-03-13T00:59:35.952Z,86.82
2023-03-13T01:02:02.322Z,86.41
2023-03-13T01:04:28.650Z,85.48
2023-03-13T01:06:54.965Z,85.67
2023-03-13T01:09:21.394Z,85.20
2023-03-13T01:11:47.732Z,85.26
2023-03-13T01:14:17.084Z,85.44
2023-03-13T01:16:43.570Z,84.81
2023-03-13T01:19:13.706Z,84.91
2023-03-13T01:21:41.622Z,84.87
2023-03-13T01:24:08.776Z,84.95
2023-03-13T01:26:35.137Z,84.88
2023-03-13T01:29:01.597Z,84.89
2023-03-13T01:31:33.399Z,85.38
2023-03-13T01:34:02.064Z,85.67
2023-03-13T01:36:28.796Z,85.92
2023-03-13T01:38:58.245Z,85.46
2023-03-13T01:41:25.808Z,85.61
2023-03-13T01:43:52.554Z,86.19
2023-03-13T01:46:24.805Z,86.76
2023-03-13T01:49:07.282Z,88.49
2023-03-13T01:51:38.740Z,88.93
2023-03-13T01:54:14.207Z,89.87
2023-03-13T01:56:53.297Z,90.80
2023-03-13T01:59:25.764Z,91.25
2023-03-13T02:01:55.067Z,91.89
2023-03-13T02:04:23.068Z,93.63
2023-03-13T02:06:52.631Z,94.88
2023-03-13T02:09:24.431Z,95.42
2023-03-13T02:12:07.103Z,96.45
2023-03-13T02:14:37.221Z,97.06
2023-03-13T02:17:04.594Z,97.61
2023-03-13T02:19:39.942Z,98.04
2023-03-13T02:22:40.174Z,98.18
2023-03-13T02:25:14.318Z,99.14
2023-03-13T02:27:41.892Z,99.75
2023-03-13T02:30:09.656Z,100.00
2023-03-13T02:32:36.695Z,100.00
2023-03-13T02:35:08.216Z,100.00
2023-03-13T02:37:35.936Z,100.00
2023-03-13T02:40:08.338Z,100.00
2023-03-13T02:42:34.725Z,100.00
2023-03-13T02:45:01.064Z,100.00
2023-03-13T02:47:27.381Z,100.00
2023-03-13T02:49:53.677Z,100.00
2023-03-13T02:52:26.092Z,100.00
2023-03-13T02:55:00.473Z,100.00
2023-03-13T02:57:26.833Z,100.00
2023-03-13T02:59:53.209Z,100.00
2023-03-13T03:02:19.527Z,100.00
2023-03-13T03:04:45.931Z,100.00
2023-03-13T03:07:12.297Z,100.00
2023-03-13T03:09:38.605Z,100.00
2023-03-13T03:12:05.275Z,100.00
2023-03-13T03:14:31.610Z,100.00
2023-03-13T03:16:57.939Z,100.00
2023-03-13T03:19:24.321Z,100.00
2023-03-13T03:21:50.720Z,100.00
2023-03-13T03:24:17.182Z,100.00
2023-03-13T03:26:43.483Z,100.00
2023-03-13T03:29:09.782Z,100.00
2023-03-13T03:31:36.204Z,100.00
2023-03-13T03:34:02.739Z,100.00
2023-03-13T03:36:29.223Z,100.00
2023-03-13T03:38:55.557Z,100.00
2023-03-13T03:41:21.992Z,100.00
2023-03-13T03:43:48.683Z,100.00
2023-03-13T03:46:15.441Z,100.00
2023-03-13T03:48:41.988Z,100.00
2023-03-13T03:51:08.379Z,100.00
2023-03-13T03:53:34.830Z,100.00
2023-03-13T03:56:02.016Z,100.00
2023-03-13T03:58:28.441Z,100.00
2023-03-13T04:00:57.483Z,100.00
2023-03-13T04:03:24.306Z,100.00
2023-03-13T04:05:50.783Z,100.00
2023-03-13T04:08:17.112Z,100.00
2023-03-13T04:10:43.543Z,100.00
2023-03-13T04:13:09.900Z,100.00
2023-03-13T04:15:39.014Z,100.00
2023-03-13T04:18:05.447Z,100.00
2023-03-13T04:20:31.783Z,100.00
2023-03-13T04:22:58.203Z,100.00
2023-03-13T04:25:24.530Z,100.00
2023-03-13T04:27:50.980Z,100.00
2023-03-13T04:30:18.730Z,100.00
2023-03-13T04:32:45.214Z,100.00
2023-03-13T04:35:11.606Z,100.00
2023-03-13T04:37:37.975Z,100.00
2023-03-13T04:40:04.864Z,100.00
2023-03-13T04:42:31.199Z,100.00
2023-03-13T04:44:57.508Z,100.00
2023-03-13T04:47:23.898Z,100.00
2023-03-13T04:49:50.231Z,100.00
2023-03-13T04:52:16.555Z,100.00
2023-03-13T04:54:42.858Z,100.00
2023-03-13T04:57:09.187Z,100.00
2023-03-13T04:59:35.495Z,100.00
2023-03-13T05:02:01.799Z,100.00
2023-03-13T05:04:28.143Z,100.00
2023-03-13T05:06:54.472Z,100.00
2023-03-13T05:09:20.803Z,100.00
2023-03-13T05:11:47.129Z,100.00
2023-03-13T05:14:13.459Z,100.00
2023-03-13T05:16:39.759Z,100.00
2023-03-13T05:19:06.150Z,100.00
2023-03-13T05:21:32.508Z,100.00
2023-03-13T05:23:58.853Z,100.00
2023-03-13T05:26:25.195Z,100.00
2023-03-13T05:28:51.594Z,100.00
2023-03-13T05:31:17.994Z,100.00
2023-03-13T05:33:44.335Z,100.00
2023-03-13T05:36:10.670Z,100.00
2023-03-13T05:38:37.211Z,100.00
2023-03-13T05:41:03.614Z,100.00
2023-03-13T05:43:30.009Z,100.00
2023-03-13T05:45:56.357Z,100.00
2023-03-13T05:48:22.676Z,100.00
2023-03-13T05:50:48.999Z,100.00
2023-03-13T05:53:15.327Z,100.00
2023-03-13T05:55:42.246Z,100.00
2023-03-13T05:58:08.607Z,100.00
2023-03-13T06:00:34.918Z,100.00
2023-03-13T06:03:01.242Z,100.00
2023-03-13T06:05:27.598Z,100.00
2023-03-13T06:07:53.947Z,100.00
2023-03-13T06:10:20.307Z,100.00
2023-03-13T06:12:52.883Z,100.00
2023-03-13T06:15:19.258Z,100.00
2023-03-13T06:17:45.561Z,100.00
2023-03-13T06:20:12.213Z,100.00
2023-03-13T06:22:38.692Z,100.00
2023-03-13T06:25:05.683Z,100.00
2023-03-13T06:27:31.993Z,100.00
2023-03-13T06:29:58.329Z,100.00
2023-03-13T06:32:24.778Z,100.00
2023-03-13T06:34:51.966Z,100.00
2023-03-13T06:37:18.288Z,100.00
2023-03-13T06:39:44.593Z,100.00
2023-03-13T06:42:11.104Z,100.00
2023-03-13T06:44:37.420Z,100.00
2023-03-13T06:47:03.901Z,100.00
2023-03-13T06:49:30.384Z,100.00
2023-03-13T06:51:59.755Z,100.00
2023-03-13T06:54:26.099Z,100.00
2023-03-13T06:56:52.419Z,100.00
2023-03-13T06:59:18.746Z,100.00
2023-03-13T07:01:45.072Z,100.00
2023-03-13T07:04:13.165Z,100.00
2023-03-13T07:06:39.684Z,100.00
2023-03-13T07:09:06.046Z,100.00
2023-03-13T07:11:32.358Z,100.00
2023-03-13T07:14:13.682Z,100.00
2023-03-13T07:16:42.819Z,100.00
2023-03-13T07:19:09.199Z,100.00
2023-03-13T07:21:35.521Z,100.00
2023-03-13T07:24:01.889Z,100.00
2023-03-13T07:26:28.278Z,100.00
2023-03-13T07:28:56.129Z,100.00
2023-03-13T07:31:23.006Z,100.00
2023-03-13T07:33:49.374Z,100.00
2023-03-13T07:36:16.016Z,100.00
2023-03-13T07:38:42.553Z,100.00
2023-03-13T07:41:11.526Z,100.00
2023-03-13T07:43:38.018Z,100.00
2023-03-13T07:46:06.447Z,100.00
2023-03-13T07:48:37.866Z,100.00
2023-03-13T07:51:06.678Z,100.00
2023-03-13T07:53:33.780Z,100.00
2023-03-13T07:56:10.069Z,100.00
2023-03-13T07:58:38.573Z,100.00
2023-03-13T08:01:19.730Z,100.00
2023-03-13T08:03:46.834Z,100.00
2023-03-13T08:06:14.876Z,100.00
2023-03-13T08:08:41.222Z,100.00
2023-03-13T08:11:13.381Z,100.00
2023-03-13T08:13:40.658Z,100.00
2023-03-13T08:16:15.274Z,100.00
2023-03-13T08:18:46.771Z,100.00
2023-03-13T08:21:21.486Z,100.00
2023-03-13T08:23:48.320Z,100.00
2023-03-13T08:26:17.398Z,100.00
2023-03-13T08:28:45.527Z,100.00
2023-03-13T08:31:13.381Z,100.00
2023-03-13T08:33:41.802Z,100.00
2023-03-13T08:36:23.241Z,100.00
2023-03-13T08:38:49.774Z,99.73
2023-03-13T08:41:27.391Z,98.79
2023-03-13T08:43:54.910Z,97.60
2023-03-13T08:46:22.207Z,97.74
2023-03-13T08:48:49.844Z,97.71
2023-03-13T08:51:16.181Z,98.04
2023-03-13T08:53:43.861Z,98.07
2023-03-13T08:56:12.437Z,98.18
2023-03-13T08:58:39.737Z,96.90
2023-03-13T09:01:09.672Z,96.74
2023-03-13T09:03:36.484Z,96.97
2023-03-13T09:06:02.940Z,97.22
2023-03-13T09:08:30.948Z,96.58
2023-03-13T09:11:05.786Z,96.89
2023-03-13T09:13:33.450Z,95.39
2023-03-13T09:16:02.311Z,94.03
2023-03-13T09:18:29.613Z,93.89
2023-03-13T09:20:56.086Z,93.44
2023-03-13T09:23:23.313Z,93.00
2023-03-13T09:25:52.855Z,92.59
2023-03-13T09:28:19.264Z,91.85
2023-03-13T09:30:45.658Z,91.87
2023-03-13T09:33:12.128Z,92.00
2023-03-13T09:35:39.246Z,92.22
2023-03-13T09:38:06.278Z,92.89
2023-03-13T09:40:41.121Z,93.61
2023-03-13T09:43:14.947Z,94.29
2023-03-13T09:45:45.663Z,95.27
2023-03-13T09:48:32.194Z,95.38
2023-03-13T09:51:15.922Z,95.69
2023-03-13T09:53:48.320Z,95.83
2023-03-13T09:56:19.168Z,95.97
2023-03-13T09:59:15.075Z,94.12
2023-03-13T10:01:43.932Z,93.28
2023-03-13T10:04:28.620Z,91.95
2023-03-13T10:06:54.956Z,89.34
2023-03-13T10:09:35.551Z,87.16
2023-03-13T10:12:20.815Z,85.88
2023-03-13T10:15:24.140Z,84.33
2023-03-13T10:17:50.474Z,82.77
2023-03-13T10:20:27.416Z,82.38
2023-03-13T10:23:40.088Z,81.15
2023-03-13T10:26:15.902Z,79.46
2023-03-13T10:28:42.202Z,79.55
2023-03-13T10:31:21.374Z,77.86
2023-03-13T10:33:47.712Z,77.06
2023-03-13T10:36:14.650Z,76.51
2023-03-13T10:38:48.311Z,74.90
2023-03-13T10:41:35.218Z,75.33
2023-03-13T10:44:07.210Z,76.44
2023-03-13T10:46:39.789Z,75.98
2023-03-13T10:49:18.148Z,75.96
2023-03-13T10:51:53.693Z,76.05
2023-03-13T10:54:30.457Z,74.48
2023-03-13T10:57:18.826Z,75.05
2023-03-13T10:59:50.154Z,76.48
2023-03-13T11:02:34.800Z,74.59
2023-03-13T11:05:32.137Z,74.42
2023-03-13T11:07:58.444Z,74.70
2023-03-13T11:10:27.246Z,72.39
2023-03-13T11:12:55.512Z,72.58
2023-03-13T11:15:35.512Z,71.70
2023-03-13T11:18:14.810Z,72.22
2023-03-13T11:20:44.896Z,70.86
2023-03-13T11:23:24.083Z,68.93
2023-03-13T11:26:11.984Z,70.14
2023-03-13T11:28:52.369Z,71.03
2023-03-13T11:31:28.508Z,69.78
2023-03-13T11:34:18.909Z,68.62
2023-03-13T11:36:54.429Z,68.85
2023-03-13T11:39:39.541Z,66.85
2023-03-13T11:42:37.268Z,65.37
2023-03-13T11:45:25.546Z,66.97
2023-03-13T11:48:13.636Z,65.98
2023-03-13T11:51:02.282Z,67.44
2023-03-13T11:53:46.119Z,67.96
2023-03-13T11:56:21.014Z,65.98
2023-03-13T11:58:59.184Z,67.62
2023-03-13T12:01:29.670Z,66.26
2023-03-13T12:04:06.335Z,65.13
2023-03-13T12:06:49.328Z,63.58
2023-03-13T12:09:28.214Z,64.59
2023-03-13T12:12:10.058Z,65.88
2023-03-13T12:14:43.353Z,64.96
2023-03-13T12:17:30.116Z,65.14
2023-03-13T12:20:08.313Z,63.65
2023-03-13T12:22:46.593Z,63.57
2023-03-13T12:25:20.886Z,64.96
2023-03-13T12:28:03.104Z,64.82
2023-03-13T12:30:45.409Z,65.00
2023-03-13T12:33:22.816Z,64.30
2023-03-13T12:36:17.590Z,64.61
2023-03-13T12:38:54.671Z,64.90
2023-03-13T12:41:31.120Z,64.21
2023-03-13T12:44:08.375Z,64.50
2023-03-13T12:47:20.515Z,63.47
2023-03-13T12:50:13.030Z,61.86
2023-03-13T12:53:10.024Z,61.86
2023-03-13T12:55:45.549Z,61.45
2023-03-13T12:58:37.806Z,61.13
2023-03-13T13:01:06.470Z,61.93
2023-03-13T13:03:43.498Z,60.96
2023-03-13T13:06:13.298Z,60.44
2023-03-13T13:08:43.659Z,60.63
2023-03-13T13:11:34.600Z,59.74
2023-03-13T13:14:16.166Z,59.82
2023-03-13T13:16:57.327Z,60.32
2023-03-13T13:19:23.644Z,59.92
2023-03-13T13:22:27.446Z,58.31
2023-03-13T13:24:59.551Z,57.65
2023-03-13T13:27:31.799Z,58.49
2023-03-13T13:30:22.550Z,59.38
2023-03-13T13:32:50.579Z,59.02
2023-03-13T13:35:25.263Z,58.39
2023-03-13T13:37:52.091Z,56.90
2023-03-13T13:40:29.215Z,56.12
2023-03-13T13:43:00.383Z,57.48
2023-03-13T13:45:31.204Z,57.43
2023-03-13T13:48:23.871Z,59.19
2023-03-13T13:51:08.695Z,59.94
2023-03-13T13:53:51.782Z,60.34
2023-03-13T13:56:29.870Z,59.71
2023-03-13T13:58:59.861Z,59.09
2023-03-13T14:01:26.615Z,58.99
2023-03-13T14:03:58.969Z,59.58
2023-03-13T14:06:29.366Z,59.80
2023-03-13T14:09:02.456Z,60.16
2023-03-13T14:11:37.293Z,59.62
2023-03-13T14:14:09.748Z,58.06
2023-03-13T14:16:38.069Z,58.92
2023-03-13T14:19:04.582Z,57.68
2023-03-13T14:21:30.900Z,57.58
2023-03-13T14:23:57.258Z,58.62
2023-03-13T14:26:25.023Z,59.29
2023-03-13T14:28:57.138Z,58.47
2023-03-13T14:31:38.636Z,58.67
2023-03-13T14:34:11.912Z,58.83
2023-03-13T14:36:47.115Z,58.72
2023-03-13T14:39:32.265Z,59.28
2023-03-13T14:42:13.007Z,60.64
2023-03-13T14:44:40.162Z,60.32
2023-03-13T14:47:17.971Z,59.57
2023-03-13T14:49:47.517Z,59.54
2023-03-13T14:52:21.370Z,59.05
2023-03-13T14:54:56.897Z,58.33
2023-03-13T14:57:27.112Z,58.61
2023-03-13T14:59:55.054Z,58.17
2023-03-13T15:02:27.664Z,57.46
2023-03-13T15:04:58.189Z,57.73
2023-03-13T15:07:27.553Z,57.92
2023-03-13T15:09:54.387Z,58.47
2023-03-13T15:12:22.977Z,59.48
2023-03-13T15:14:51.952Z,58.98
2023-03-13T15:17:19.947Z,58.67
2023-03-13T15:20:06.191Z,59.05
2023-03-13T15:22:37.435Z,59.59
2023-03-13T15:25:07.864Z,60.34
2023-03-13T15:27:35.009Z,60.33
2023-03-13T15:30:01.366Z,60.84
2023-03-13T15:32:31.064Z,61.33
2023-03-13T15:34:57.419Z,61.67
2023-03-13T15:37:25.503Z,61.11
2023-03-13T15:39:52.040Z,62.66
2023-03-13T15:42:18.358Z,61.90
2023-03-13T15:44:44.682Z,62.23
2023-03-13T15:47:17.470Z,62.40
2023-03-13T15:49:43.830Z,61.88
2023-03-13T15:52:19.010Z,61.95
2023-03-13T15:54:46.370Z,62.48
2023-03-13T15:57:14.920Z,62.68
2023-03-13T15:59:41.326Z,63.21
2023-03-13T16:02:19.118Z,63.04
2023-03-13T16:04:45.745Z,64.11
2023-03-13T16:07:14.280Z,63.82
2023-03-13T16:09:41.758Z,63.64
2023-03-13T16:12:08.899Z,63.85
2023-03-13T16:14:35.908Z,64.23
2023-03-13T16:17:04.428Z,63.92
2023-03-13T16:19:30.870Z,64.14
2023-03-13T16:21:57.184Z,64.37
2023-03-13T16:24:23.502Z,64.63
2023-03-13T16:26:49.801Z,65.08
2023-03-13T16:29:16.615Z,65.19
2023-03-13T16:31:42.919Z,64.24
2023-03-13T16:34:09.316Z,64.72
2023-03-13T16:36:36.394Z,64.43
2023-03-13T16:39:06.235Z,64.53
2023-03-13T16:41:32.560Z,63.84
2023-03-13T16:43:58.905Z,64.24
2023-03-13T16:46:32.330Z,65.20
2023-03-13T16:48:58.643Z,66.33
2023-03-13T16:51:27.174Z,66.23
2023-03-13T16:53:55.553Z,66.52
2023-03-13T16:56:25.872Z,67.40
2023-03-13T16:58:53.352Z,67.68
2023-03-13T17:01:20.026Z,68.70
2023-03-13T17:03:46.435Z,67.79
2023-03-13T17:06:21.471Z,68.24
2023-03-13T17:08:48.288Z,68.43
2023-03-13T17:11:18.042Z,68.89
2023-03-13T17:13:46.246Z,69.99
2023-03-13T17:16:14.835Z,70.03
2023-03-13T17:18:42.662Z,70.33
2023-03-13T17:21:17.761Z,70.28
2023-03-13T17:23:45.241Z,70.03
2023-03-13T17:26:18.910Z,70.68
2023-03-13T17:28:47.416Z,70.93
2023-03-13T17:31:14.199Z,70.98
2023-03-13T17:33:40.806Z,70.99
2023-03-13T17:36:16.230Z,70.86
2023-03-13T17:38:43.204Z,70.88
2023-03-13T17:41:14.525Z,71.42
2023-03-13T17:43:41.384Z,71.42
2023-03-13T17:46:19.920Z,70.88
2023-03-13T17:48:48.389Z,71.05
2023-03-13T17:51:18.137Z,70.68
2023-03-13T17:53:44.956Z,70.11
2023-03-13T17:56:39.371Z,69.80
2023-03-13T17:59:11.083Z,69.58
2023-03-13T18:01:37.382Z,69.45
2023-03-13T18:04:03.752Z,69.50
2023-03-13T18:06:39.122Z,69.39
2023-03-13T18:09:08.390Z,69.05
2023-03-13T18:11:36.203Z,68.58
2023-03-13T18:14:02.783Z,68.74
2023-03-13T18:16:41.460Z,68.28
2023-03-13T18:19:13.139Z,68.78
2023-03-13T18:21:39.450Z,68.25
2023-03-13T18:24:05.995Z,67.64
2023-03-13T18:26:36.997Z,68.39
2023-03-13T18:29:12.431Z,68.46
2023-03-13T18:31:38.918Z,68.01
2023-03-13T18:34:05.272Z,68.37
2023-03-13T18:36:31.773Z,68.48
2023-03-13T18:38:58.121Z,68.60
2023-03-13T18:41:25.079Z,68.17
2023-03-13T18:43:52.061Z,68.54
2023-03-13T18:46:27.465Z,68.54
2023-03-13T18:48:54.638Z,67.94
2023-03-13T18:51:23.678Z,67.71
2023-03-13T18:53:51.392Z,67.66
2023-03-13T18:56:24.271Z,67.93
2023-03-13T18:58:53.098Z,68.05
2023-03-13T19:01:21.692Z,68.14
2023-03-13T19:03:48.604Z,68.15
2023-03-13T19:06:32.747Z,68.05
2023-03-13T19:09:01.214Z,68.47
2023-03-13T19:11:30.113Z,68.31
2023-03-13T19:13:57.168Z,69.30
2023-03-13T19:16:37.149Z,69.73
2023-03-13T19:19:10.493Z,70.05
2023-03-13T19:21:36.807Z,70.88
2023-03-13T19:24:03.253Z,71.23
2023-03-13T19:26:31.881Z,71.67
2023-03-13T19:28:59.282Z,72.25
2023-03-13T19:31:26.503Z,72.55
2023-03-13T19:33:52.853Z,72.93
2023-03-13T19:36:21.639Z,73.48
2023-03-13T19:38:48.692Z,73.35
2023-03-13T19:41:15.470Z,73.56
2023-03-13T19:43:42.364Z,73.42
2023-03-13T19:46:29.100Z,73.62
2023-03-13T19:49:00.663Z,74.16
2023-03-13T19:51:28.642Z,74.45
2023-03-13T19:53:56.431Z,75.27
2023-03-13T19:56:30.313Z,76.43
2023-03-13T19:59:02.575Z,76.95
2023-03-13T20:01:29.260Z,77.30
2023-03-13T20:03:56.074Z,78.15
2023-03-13T20:06:24.894Z,78.02
2023-03-13T20:09:02.952Z,78.39
2023-03-13T20:11:30.169Z,78.31
2023-03-13T20:13:57.330Z,78.56
2023-03-13T20:16:24.745Z,78.79
2023-03-13T20:18:51.950Z,78.62
2023-03-13T20:21:18.801Z,78.19
2023-03-13T20:23:48.153Z,78.49
2023-03-13T20:26:16.790Z,78.46
2023-03-13T20:28:48.337Z,79.25
2023-03-13T20:31:16.696Z,79.33
2023-03-13T20:33:43.146Z,79.28
2023-03-13T20:36:12.530Z,79.11
2023-03-13T20:38:40.040Z,79.49
2023-03-13T20:41:07.514Z,79.86
2023-03-13T20:43:35.541Z,79.82
2023-03-13T20:46:01.937Z,79.65
2023-03-13T20:48:28.756Z,79.97
2023-03-13T20:50:56.946Z,80.14
2023-03-13T20:53:24.791Z,80.32
2023-03-13T20:55:52.409Z,80.21
2023-03-13T20:58:19.150Z,80.03
2023-03-13T21:00:46.409Z,79.68
2023-03-13T21:03:13.022Z,78.85
2023-03-13T21:05:40.496Z,78.86
2023-03-13T21:08:07.427Z,79.20
2023-03-13T21:10:40.684Z,79.46
2023-03-13T21:13:08.649Z,79.35
2023-03-13T21:15:35.540Z,79.33
2023-03-13T21:18:02.491Z,78.81
2023-03-13T21:20:30.329Z,79.30
2023-03-13T21:22:56.992Z,79.32
2023-03-13T21:25:23.453Z,79.56
2023-03-13T21:27:50.052Z,80.26
2023-03-13T21:30:19.217Z,80.10
2023-03-13T21:32:46.906Z,79.80
2023-03-13T21:35:14.670Z,79.98
2023-03-13T21:37:41.168Z,80.03
2023-03-13T21:40:08.240Z,80.53
2023-03-13T21:42:34.717Z,80.81
2023-03-13T21:45:01.035Z,81.04
2023-03-13T21:47:27.345Z,81.27
2023-03-13T21:49:54.817Z,81.73
2023-03-13T21:52:22.209Z,81.68
2023-03-13T21:54:49.261Z,81.90
2023-03-13T21:57:15.842Z,81.42
2023-03-13T21:59:42.827Z,81.46
2023-03-13T22:02:13.444Z,80.77
2023-03-13T22:04:40.074Z,80.76
2023-03-13T22:07:06.778Z,80.93
2023-03-13T22:09:33.195Z,80.56
2023-03-13T22:11:59.576Z,80.62
2023-03-13T22:14:25.900Z,81.09
2023-03-13T22:16:52.223Z,80.98
2023-03-13T22:19:18.530Z,81.76
2023-03-13T22:21:44.957Z,81.95
2023-03-13T22:24:12.080Z,81.58
2023-03-13T22:26:38.629Z,81.34
2023-03-13T22:29:04.946Z,81.26
2023-03-13T22:31:31.380Z,81.12
2023-03-13T22:33:57.958Z,81.33
2023-03-13T22:36:24.390Z,81.62
2023-03-13T22:38:50.753Z,81.65
2023-03-13T22:41:17.350Z,81.59
2023-03-13T22:43:44.563Z,82.02
2023-03-13T22:46:11.576Z,82.30
2023-03-13T22:48:37.952Z,82.14
2023-03-13T22:51:08.448Z,81.94
2023-03-13T22:53:36.521Z,81.92
2023-03-13T22:56:02.997Z,81.95
2023-03-13T22:58:29.709Z,81.67
2023-03-13T23:00:56.567Z,81.05
2023-03-13T23:03:23.041Z,81.53
2023-03-13T23:05:49.348Z,80.80
2023-03-13T23:08:16.424Z,80.60
2023-03-13T23:10:45.007Z,80.66
2023-03-13T23:13:12.166Z,80.40
2023-03-13T23:15:55.299Z,80.07
2023-03-13T23:18:23.630Z,79.84
2023-03-13T23:20:49.929Z,79.84
2023-03-13T23:23:16.314Z,79.80
2023-03-13T23:25:42.614Z,79.71
2023-03-13T23:28:08.950Z,79.47
2023-03-13T23:30:35.269Z,79.82
2023-03-13T23:33:01.612Z,79.68
2023-03-13T23:35:28.131Z,79.27
2023-03-13T23:37:54.474Z,79.11
2023-03-13T23:40:22.342Z,79.30
2023-03-13T23:42:50.254Z,79.35
2023-03-13T23:45:17.794Z,78.88
2023-03-13T23:47:45.013Z,79.04
2023-03-13T23:50:13.108Z,79.27
2023-03-13T23:52:39.461Z,78.81
2023-03-13T23:55:06.428Z,78.95
2023-03-13T23:57:33.217Z,78.80
2023-03-13T23:59:59.676Z,78.49
